createdAt,value
2023-02-05T00:01:05.005Z,2.40
2023-02-05T00:03:35.247Z,2.30
2023-02-05T00:08:31.467Z,2.30
2023-02-05T00:11:09.890Z,2.30
2023-02-05T00:13:44.445Z,2.10
2023-02-05T00:16:16.082Z,2.30
2023-02-05T00:18:44.520Z,2.10
2023-02-05T00:23:41.422Z,2.20
2023-02-05T00:26:10.553Z,2.10
2023-02-05T00:28:39.186Z,2.00
2023-02-05T00:31:10.530Z,1.90
2023-02-05T00:33:39.973Z,1.80
2023-02-05T00:36:11.337Z,2.50
2023-02-05T00:38:40.424Z,1.60
2023-02-05T00:43:36.911Z,1.60
2023-02-05T00:46:05.347Z,1.00
2023-02-05T00:48:33.294Z,1.80
2023-02-05T00:51:02.742Z,1.60
2023-02-05T00:53:30.976Z,1.40
2023-02-05T00:55:59.050Z,2.80
2023-02-05T00:58:27.113Z,1.40
2023-02-05T01:00:55.237Z,1.90
2023-02-05T01:03:23.486Z,1.80
2023-02-05T01:05:51.598Z,1.40
2023-02-05T01:10:52.382Z,2.00
2023-02-05T01:13:20.498Z,1.70
2023-02-05T01:15:48.586Z,2.10
2023-02-05T01:18:16.705Z,2.00
2023-02-05T01:20:51.367Z,2.10
2023-02-05T01:23:21.087Z,2.00
2023-02-05T01:25:49.107Z,2.50
2023-02-05T01:28:17.392Z,2.10
2023-02-05T01:30:48.837Z,2.50
2023-02-05T01:33:17.340Z,2.90
2023-02-05T01:35:45.814Z,3.30
2023-02-05T01:38:14.073Z,2.20
2023-02-05T01:40:43.783Z,2.60
2023-02-05T01:43:13.792Z,2.40
2023-02-05T01:46:07.844Z,2.60
2023-02-05T01:48:40.493Z,2.50
2023-02-05T01:51:12.997Z,2.70
2023-02-05T01:53:41.951Z,2.60
2023-02-05T01:56:15.991Z,2.30
2023-02-05T01:58:47.845Z,2.80
2023-02-05T02:01:16.003Z,2.70
2023-02-05T02:03:44.532Z,2.70
2023-02-05T02:06:12.500Z,2.90
2023-02-05T02:08:40.602Z,2.80
2023-02-05T02:11:12.484Z,2.90
2023-02-05T02:13:42.392Z,3.30
2023-02-05T02:16:10.750Z,3.40
2023-02-05T02:18:40.564Z,3.10
2023-02-05T02:21:31.742Z,3.20
2023-02-05T02:24:14.542Z,3.10
2023-02-05T02:27:02.761Z,3.30
2023-02-05T02:29:38.489Z,3.70
2023-02-05T02:32:14.109Z,3.40
2023-02-05T02:34:49.030Z,3.20
2023-02-05T02:37:23.759Z,3.00
2023-02-05T02:40:00.095Z,3.20
2023-02-05T02:42:34.379Z,3.30
2023-02-05T02:45:07.083Z,3.40
2023-02-05T02:47:40.023Z,0.90
2023-02-05T02:50:10.436Z,3.30
2023-02-05T02:52:41.858Z,3.90
2023-02-05T02:55:13.845Z,3.70
2023-02-05T02:57:44.491Z,3.40
2023-02-05T03:00:18.512Z,3.80
2023-02-05T03:02:49.055Z,3.40
2023-02-05T03:05:20.992Z,3.50
2023-02-05T03:07:53.562Z,3.60
2023-02-05T03:10:27.175Z,3.50
2023-02-05T03:12:57.225Z,3.60
2023-02-05T03:15:26.732Z,3.70
2023-02-05T03:17:57.750Z,3.70
2023-02-05T03:20:28.367Z,6.50
2023-02-05T03:22:57.375Z,3.80
2023-02-05T03:25:28.755Z,3.60
2023-02-05T03:27:58.316Z,3.70
2023-02-05T03:30:34.883Z,3.40
2023-02-05T03:33:17.255Z,3.90
2023-02-05T03:35:50.440Z,3.70
2023-02-05T03:38:30.686Z,3.70
2023-02-05T03:41:09.072Z,3.60
2023-02-05T03:43:50.098Z,3.70
2023-02-05T03:46:25.458Z,3.80
2023-02-05T03:49:05.618Z,3.60
2023-02-05T03:51:39.215Z,3.70
2023-02-05T03:54:13.984Z,4.20
2023-02-05T03:56:49.533Z,3.70
2023-02-05T03:59:19.133Z,3.30
2023-02-05T04:01:48.711Z,3.70
2023-02-05T04:04:17.354Z,3.60
2023-02-05T04:06:54.207Z,3.60
2023-02-05T04:09:22.131Z,3.80
2023-02-05T04:11:50.498Z,3.70
2023-02-05T04:14:18.602Z,3.60
2023-02-05T04:16:48.042Z,3.90
2023-02-05T04:19:15.969Z,3.80
2023-02-05T04:24:12.387Z,3.70
2023-02-05T04:26:40.414Z,4.00
2023-02-05T04:29:08.451Z,3.50
2023-02-05T04:31:37.493Z,3.40
2023-02-05T04:34:06.872Z,3.70
2023-02-05T04:36:34.945Z,3.90
2023-02-05T04:39:02.982Z,3.50
2023-02-05T04:41:30.956Z,3.70
2023-02-05T04:43:59.032Z,3.70
2023-02-05T04:46:26.961Z,3.80
2023-02-05T04:48:54.972Z,3.80
2023-02-05T04:51:24.438Z,3.50
2023-02-05T04:53:52.412Z,3.40
2023-02-05T04:56:20.405Z,3.70
2023-02-05T04:58:48.436Z,3.80
2023-02-05T05:01:18.774Z,3.70
2023-02-05T05:06:16.150Z,3.90
2023-02-05T05:08:46.331Z,3.90
2023-02-05T05:11:16.605Z,4.10
2023-02-05T05:16:14.010Z,4.00
2023-02-05T05:18:43.484Z,3.80
2023-02-05T05:21:11.590Z,3.70
2023-02-05T05:23:39.954Z,4.00
2023-02-05T05:26:10.801Z,4.20
2023-02-05T05:28:39.548Z,3.90
2023-02-05T05:31:09.435Z,4.20
2023-02-05T05:33:38.416Z,4.00
2023-02-05T05:36:07.931Z,3.80
2023-02-05T05:38:36.649Z,3.80
2023-02-05T05:41:22.866Z,3.70
2023-02-05T05:43:53.596Z,3.90
2023-02-05T05:46:24.965Z,4.00
2023-02-05T05:48:54.556Z,4.00
2023-02-05T05:51:24.351Z,3.80
2023-02-05T05:53:52.816Z,4.20
2023-02-05T05:56:21.056Z,4.10
2023-02-05T05:58:51.299Z,4.30
2023-02-05T06:01:23.005Z,4.20
2023-02-05T06:03:51.141Z,3.80
2023-02-05T06:06:19.235Z,3.80
2023-02-05T06:08:47.298Z,4.30
2023-02-05T06:11:15.294Z,3.90
2023-02-05T06:13:43.209Z,4.30
2023-02-05T06:16:12.621Z,4.00
2023-02-05T06:18:43.778Z,3.80
2023-02-05T06:21:11.860Z,3.90
2023-02-05T06:23:39.874Z,4.00
2023-02-05T06:26:07.893Z,4.10
2023-02-05T06:28:36.003Z,3.70
2023-02-05T06:31:04.018Z,4.00
2023-02-05T06:33:33.694Z,3.90
2023-02-05T06:36:02.079Z,3.80
2023-02-05T06:38:30.161Z,4.20
2023-02-05T06:40:58.058Z,3.90
2023-02-05T06:43:26.089Z,4.10
2023-02-05T06:45:55.646Z,4.20
2023-02-05T06:48:23.883Z,4.20
2023-02-05T06:50:53.277Z,4.10
2023-02-05T06:53:21.329Z,4.20
2023-02-05T06:55:49.226Z,4.20
2023-02-05T06:58:17.270Z,3.80
2023-02-05T07:00:45.348Z,4.10
2023-02-05T07:03:13.728Z,4.00
2023-02-05T07:08:11.700Z,3.80
2023-02-05T07:10:39.684Z,3.90
2023-02-05T07:13:07.605Z,3.50
2023-02-05T07:15:37.501Z,4.00
2023-02-05T07:18:06.184Z,4.00
2023-02-05T07:20:34.495Z,3.80
2023-02-05T07:25:36.564Z,4.10
2023-02-05T07:28:05.755Z,4.00
2023-02-05T07:30:33.961Z,4.00
2023-02-05T07:33:03.700Z,4.00
2023-02-05T07:35:32.612Z,4.00
2023-02-05T07:38:00.727Z,3.90
2023-02-05T07:40:28.868Z,4.00
2023-02-05T07:42:58.645Z,4.30
2023-02-05T07:45:26.617Z,4.20
2023-02-05T07:47:54.819Z,3.90
2023-02-05T07:50:22.831Z,3.50
2023-02-05T07:52:51.131Z,4.30
2023-02-05T07:55:19.232Z,4.00
2023-02-05T07:57:47.685Z,3.70
2023-02-05T08:00:17.476Z,3.90
2023-02-05T08:05:13.926Z,3.60
2023-02-05T08:10:14.354Z,3.90
2023-02-05T08:15:12.606Z,3.80
2023-02-05T08:17:42.063Z,4.20
2023-02-05T08:20:11.500Z,3.90
2023-02-05T08:22:42.501Z,3.90
2023-02-05T08:25:13.273Z,4.10
2023-02-05T08:27:43.372Z,3.80
2023-02-05T08:30:15.008Z,4.20
2023-02-05T08:32:48.426Z,3.90
2023-02-05T08:35:16.756Z,4.10
2023-02-05T08:37:44.769Z,4.10
2023-02-05T08:40:13.544Z,3.90
2023-02-05T08:42:41.505Z,4.20
2023-02-05T08:45:10.430Z,4.00
2023-02-05T08:47:38.417Z,4.00
2023-02-05T08:50:09.008Z,4.00
2023-02-05T08:52:37.154Z,4.20
2023-02-05T08:55:05.960Z,4.10
2023-02-05T08:57:34.547Z,4.10
2023-02-05T09:00:06.428Z,4.50
2023-02-05T09:07:40.186Z,4.40
2023-02-05T09:10:09.695Z,4.30
2023-02-05T09:12:37.714Z,4.10
2023-02-05T09:15:06.614Z,5.10
2023-02-05T09:17:34.979Z,5.40
2023-02-05T09:20:03.392Z,5.50
2023-02-05T09:22:31.524Z,5.20
2023-02-05T09:25:00.996Z,5.20
2023-02-05T09:27:29.076Z,5.20
2023-02-05T09:29:57.321Z,5.20
2023-02-05T09:32:25.776Z,5.20
2023-02-05T09:37:22.509Z,5.00
2023-02-05T09:40:19.615Z,4.70
2023-02-05T09:42:45.597Z,5.00
2023-02-05T09:45:26.441Z,5.20
2023-02-05T09:48:04.709Z,4.80
2023-02-05T09:50:33.761Z,4.90
2023-02-05T09:53:05.842Z,4.70
2023-02-05T09:55:37.183Z,4.90
2023-02-05T09:58:09.314Z,5.20
2023-02-05T10:00:46.458Z,5.00
2023-02-05T10:03:24.439Z,4.90
2023-02-05T10:06:08.417Z,4.90
2023-02-05T10:08:42.612Z,5.30
2023-02-05T10:11:19.583Z,5.00
2023-02-05T10:14:02.310Z,4.90
2023-02-05T10:16:52.527Z,4.90
2023-02-05T10:19:47.795Z,4.90
2023-02-05T10:22:22.437Z,5.00
2023-02-05T10:25:19.591Z,5.00
2023-02-05T10:27:54.653Z,5.10
2023-02-05T10:30:29.401Z,5.00
2023-02-05T10:32:59.203Z,5.10
2023-02-05T10:35:34.794Z,5.10
2023-02-05T10:38:06.008Z,4.70
2023-02-05T10:40:42.100Z,4.90
2023-02-05T10:43:21.168Z,5.20
2023-02-05T10:45:52.426Z,5.20
2023-02-05T10:48:40.544Z,5.30
2023-02-05T10:51:14.100Z,5.40
2023-02-05T10:53:46.301Z,5.40
2023-02-05T10:56:18.163Z,5.30
2023-02-05T10:58:50.491Z,5.60
2023-02-05T11:01:21.849Z,5.60
2023-02-05T11:03:56.736Z,5.80
2023-02-05T11:06:28.449Z,5.10
2023-02-05T11:08:56.445Z,5.80
2023-02-05T11:11:28.105Z,5.70
2023-02-05T11:13:58.684Z,6.00
2023-02-05T11:16:38.562Z,5.80
2023-02-05T11:19:19.615Z,5.50
2023-02-05T11:21:51.188Z,5.70
2023-02-05T11:24:31.512Z,5.80
2023-02-05T11:27:28.130Z,6.00
2023-02-05T11:29:59.837Z,5.70
2023-02-05T11:32:37.325Z,9.10
2023-02-05T11:35:21.112Z,6.10
2023-02-05T11:37:55.602Z,5.90
2023-02-05T11:40:28.214Z,6.00
2023-02-05T11:43:03.771Z,6.10
2023-02-05T11:45:33.793Z,6.20
2023-02-05T11:48:06.779Z,6.10
2023-02-05T11:50:35.941Z,6.20
2023-02-05T11:53:11.874Z,6.20
2023-02-05T11:58:31.608Z,6.20
2023-02-05T12:01:06.988Z,6.50
2023-02-05T12:03:36.735Z,6.20
2023-02-05T12:06:16.649Z,6.00
2023-02-05T12:08:49.944Z,6.10
2023-02-05T12:11:29.367Z,6.40
2023-02-05T12:14:11.230Z,6.10
2023-02-05T12:16:52.436Z,6.10
2023-02-05T12:19:25.531Z,6.20
2023-02-05T12:21:59.957Z,6.20
2023-02-05T12:24:54.905Z,6.20
2023-02-05T12:27:40.470Z,6.20
2023-02-05T12:30:27.018Z,6.20
2023-02-05T12:33:03.426Z,6.20
2023-02-05T12:35:49.696Z,6.20
2023-02-05T12:38:32.505Z,6.20
2023-02-05T12:41:13.386Z,6.10
2023-02-05T12:43:46.152Z,6.80
2023-02-05T12:46:47.872Z,6.20
2023-02-05T12:49:29.028Z,6.10
2023-02-05T12:52:11.672Z,6.30
2023-02-05T12:54:52.970Z,6.20
2023-02-05T12:57:24.689Z,6.40
2023-02-05T12:59:58.748Z,6.50
2023-02-05T13:02:34.925Z,6.40
2023-02-05T13:05:14.482Z,6.50
2023-02-05T13:07:47.958Z,6.80
2023-02-05T13:10:20.019Z,6.70
2023-02-05T13:12:52.578Z,6.60
2023-02-05T13:15:23.418Z,6.60
2023-02-05T13:17:59.246Z,6.40
2023-02-05T13:20:46.114Z,6.50
2023-02-05T13:23:33.697Z,6.40
2023-02-05T13:26:20.703Z,6.50
2023-02-05T13:28:50.212Z,6.50
2023-02-05T13:31:25.877Z,6.50
2023-02-05T13:33:56.124Z,6.60
2023-02-05T13:36:48.082Z,6.60
2023-02-05T13:39:46.267Z,6.60
2023-02-05T13:42:46.322Z,6.90
2023-02-05T13:45:42.278Z,6.60
2023-02-05T13:48:36.455Z,6.60
2023-02-05T13:51:22.037Z,6.50
2023-02-05T13:54:10.168Z,6.40
2023-02-05T13:56:51.856Z,6.80
2023-02-05T13:59:23.971Z,6.70
2023-02-05T14:01:56.399Z,6.60
2023-02-05T14:04:28.716Z,6.90
2023-02-05T14:07:01.212Z,6.40
2023-02-05T14:09:36.293Z,6.60
2023-02-05T14:12:08.689Z,6.70
2023-02-05T14:17:46.181Z,6.70
2023-02-05T14:20:45.608Z,6.60
2023-02-05T14:23:16.690Z,6.60
2023-02-05T14:26:22.461Z,6.60
2023-02-05T14:28:52.459Z,6.50
2023-02-05T14:31:56.867Z,6.60
2023-02-05T14:34:59.752Z,6.10
2023-02-05T14:37:36.147Z,6.70
2023-02-05T14:40:26.005Z,6.50
2023-02-05T14:43:08.441Z,6.50
2023-02-05T14:45:44.792Z,6.50
2023-02-05T14:48:21.537Z,6.40
2023-02-05T14:51:02.835Z,4.70
2023-02-05T14:53:33.956Z,6.50
2023-02-05T14:56:26.431Z,6.40
2023-02-05T14:59:01.719Z,6.40
2023-02-05T15:01:45.791Z,6.40
2023-02-05T15:04:29.891Z,6.20
2023-02-05T15:07:02.303Z,6.40
2023-02-05T15:09:40.354Z,6.40
2023-02-05T15:12:48.046Z,6.40
2023-02-05T15:15:33.171Z,6.50
2023-02-05T15:18:10.743Z,6.50
2023-02-05T15:20:40.458Z,6.60
2023-02-05T15:23:20.409Z,6.20
2023-02-05T15:25:56.674Z,6.40
2023-02-05T15:28:32.478Z,6.40
2023-02-05T15:31:10.803Z,6.40
2023-02-05T15:33:50.788Z,6.50
2023-02-05T15:36:30.825Z,6.20
2023-02-05T15:39:10.607Z,6.20
2023-02-05T15:41:44.482Z,6.20
2023-02-05T15:44:22.532Z,6.40
2023-02-05T15:46:51.647Z,6.30
2023-02-05T15:49:21.450Z,6.10
2023-02-05T15:51:49.546Z,7.20
2023-02-05T15:54:21.394Z,6.30
2023-02-05T15:56:54.105Z,6.20
2023-02-05T15:59:27.847Z,4.70
2023-02-05T16:02:05.647Z,6.20
2023-02-05T16:04:35.808Z,6.20
2023-02-05T16:09:38.195Z,6.10
2023-02-05T16:12:16.978Z,6.20
2023-02-05T16:14:45.726Z,6.10
2023-02-05T16:17:27.488Z,6.10
2023-02-05T16:20:12.055Z,6.20
2023-02-05T16:22:42.159Z,5.60
2023-02-05T16:25:24.584Z,6.00
2023-02-05T16:27:57.011Z,6.10
2023-02-05T16:30:31.534Z,6.00
2023-02-05T16:33:01.641Z,6.20
2023-02-05T16:35:35.665Z,6.00
2023-02-05T16:38:09.192Z,6.00
2023-02-05T16:40:40.756Z,6.00
2023-02-05T16:43:22.620Z,5.90
2023-02-05T16:46:34.168Z,5.90
2023-02-05T16:49:03.740Z,5.80
2023-02-05T16:51:52.964Z,6.00
2023-02-05T16:54:33.445Z,5.50
2023-02-05T16:57:07.600Z,5.80
2023-02-05T16:59:50.023Z,5.80
2023-02-05T17:02:29.197Z,5.50
2023-02-05T17:04:59.686Z,5.80
2023-02-05T17:10:17.348Z,5.90
2023-02-05T17:12:51.701Z,5.80
2023-02-05T17:15:40.177Z,5.70
2023-02-05T17:18:35.353Z,5.60
2023-02-05T17:21:27.451Z,5.80
2023-02-05T17:23:59.833Z,5.50
2023-02-05T17:26:31.023Z,6.00
2023-02-05T17:29:01.990Z,6.30
2023-02-05T17:31:34.351Z,5.70
2023-02-05T17:34:02.414Z,5.60
2023-02-05T17:36:30.442Z,5.10
2023-02-05T17:38:58.716Z,5.60
2023-02-05T17:41:54.486Z,5.40
2023-02-05T17:44:22.829Z,5.50
2023-02-05T17:46:54.143Z,5.30
2023-02-05T17:49:22.180Z,5.40
2023-02-05T17:51:50.570Z,5.70
2023-02-05T17:54:20.303Z,5.40
2023-02-05T17:56:50.066Z,5.30
2023-02-05T17:59:19.928Z,5.20
2023-02-05T18:01:48.535Z,5.40
2023-02-05T18:04:18.606Z,5.40
2023-02-05T18:06:48.549Z,5.40
2023-02-05T18:09:20.039Z,5.40
2023-02-05T18:11:48.339Z,6.00
2023-02-05T18:14:16.636Z,5.30
2023-02-05T18:16:45.061Z,5.40
2023-02-05T18:19:13.766Z,5.30
2023-02-05T18:21:44.179Z,5.30
2023-02-05T18:24:12.133Z,5.50
2023-02-05T18:26:40.215Z,5.30
2023-02-05T18:31:37.523Z,5.40
2023-02-05T18:34:05.731Z,5.50
2023-02-05T18:36:33.649Z,5.20
2023-02-05T18:39:03.171Z,5.30
2023-02-05T18:41:32.055Z,5.40
2023-02-05T18:44:00.344Z,5.50
2023-02-05T18:46:29.248Z,4.80
2023-02-05T18:48:57.448Z,5.50
2023-02-05T18:51:25.488Z,5.00
2023-02-05T18:53:54.051Z,5.40
2023-02-05T18:56:25.182Z,5.20
2023-02-05T18:58:56.314Z,4.80
2023-02-05T19:01:24.622Z,4.80
2023-02-05T19:03:54.674Z,5.30
2023-02-05T19:06:23.036Z,5.30
2023-02-05T19:08:51.431Z,5.40
2023-02-05T19:11:22.815Z,5.20
2023-02-05T19:13:58.171Z,5.20
2023-02-05T19:16:27.462Z,4.90
2023-02-05T19:18:55.544Z,4.90
2023-02-05T19:21:25.312Z,5.10
2023-02-05T19:23:54.886Z,5.10
2023-02-05T19:26:25.371Z,5.10
2023-02-05T19:28:55.993Z,5.50
2023-02-05T19:31:27.071Z,5.10
2023-02-05T19:33:55.600Z,5.10
2023-02-05T19:36:24.506Z,4.80
2023-02-05T19:38:52.660Z,5.20
2023-02-05T19:41:22.300Z,5.00
2023-02-05T19:43:52.355Z,5.10
2023-02-05T19:46:22.072Z,5.10
2023-02-05T19:48:51.758Z,4.80
2023-02-05T19:51:20.396Z,5.10
2023-02-05T19:53:48.990Z,5.20
2023-02-05T19:56:18.406Z,4.90
2023-02-05T19:58:48.015Z,5.20
2023-02-05T20:01:18.122Z,5.10
2023-02-05T20:03:46.921Z,5.00
2023-02-05T20:06:18.462Z,5.10
2023-02-05T20:08:47.375Z,4.90
2023-02-05T20:11:16.231Z,5.00
2023-02-05T20:13:44.925Z,5.00
2023-02-05T20:16:16.078Z,5.30
2023-02-05T20:18:44.960Z,4.90
2023-02-05T20:21:14.961Z,4.70
2023-02-05T20:23:44.418Z,5.00
2023-02-05T20:26:14.347Z,5.00
2023-02-05T20:28:57.118Z,5.10
2023-02-05T20:31:34.263Z,5.10
2023-02-05T20:34:02.936Z,4.80
2023-02-05T20:36:32.531Z,5.00
2023-02-05T20:39:03.546Z,4.70
2023-02-05T20:41:31.595Z,5.00
2023-02-05T20:43:59.911Z,5.20
2023-02-05T20:46:28.462Z,4.90
2023-02-05T20:48:56.531Z,4.90
2023-02-05T20:51:24.755Z,4.90
2023-02-05T20:53:56.996Z,5.10
2023-02-05T20:56:28.381Z,5.00
2023-02-05T20:58:58.510Z,5.00
2023-02-05T21:01:27.617Z,5.10
2023-02-05T21:03:57.768Z,5.00
2023-02-05T21:06:26.728Z,4.80
2023-02-05T21:08:55.810Z,5.00
2023-02-05T21:11:26.815Z,4.80
2023-02-05T21:13:55.297Z,4.80
2023-02-05T21:16:26.250Z,5.00
2023-02-05T21:18:55.437Z,5.10
2023-02-05T21:21:25.920Z,4.90
2023-02-05T21:23:58.271Z,5.40
2023-02-05T21:26:29.995Z,4.80
2023-02-05T21:29:00.012Z,4.90
2023-02-05T21:31:33.863Z,4.90
2023-02-05T21:34:02.493Z,4.90
2023-02-05T21:36:31.162Z,4.90
2023-02-05T21:38:59.293Z,5.00
2023-02-05T21:41:29.161Z,5.10
2023-02-05T21:44:00.124Z,5.10
2023-02-05T21:46:30.385Z,4.90
2023-02-05T21:49:00.457Z,5.10
2023-02-05T21:51:30.312Z,4.50
2023-02-05T21:54:00.204Z,5.20
2023-02-05T21:56:31.991Z,4.80
2023-02-05T21:59:00.121Z,5.00
2023-02-05T22:01:30.104Z,5.10
2023-02-05T22:04:00.654Z,4.60
2023-02-05T22:06:30.685Z,4.70
2023-02-05T22:09:00.416Z,4.60
2023-02-05T22:11:29.854Z,4.80
2023-02-05T22:13:58.218Z,4.30
2023-02-05T22:16:27.689Z,4.50
2023-02-05T22:18:56.533Z,4.10
2023-02-05T22:21:26.871Z,4.10
2023-02-05T22:23:59.123Z,4.60
2023-02-05T22:26:30.191Z,4.10
2023-02-05T22:29:00.308Z,4.60
2023-02-05T22:31:30.358Z,4.30
2023-02-05T22:33:58.643Z,4.50
2023-02-05T22:36:28.852Z,4.50
2023-02-05T22:38:57.632Z,4.30
2023-02-05T22:41:27.723Z,4.50
2023-02-05T22:43:58.496Z,4.30
2023-02-05T22:46:28.570Z,4.30
2023-02-05T22:48:58.392Z,4.30
2023-02-05T22:51:29.465Z,4.10
2023-02-05T22:53:57.380Z,4.30
2023-02-05T22:56:25.896Z,4.10
2023-02-05T22:58:56.666Z,4.50
2023-02-05T23:01:26.695Z,4.50
2023-02-05T23:03:55.472Z,4.40
2023-02-05T23:06:25.532Z,4.50
2023-02-05T23:08:55.651Z,4.60
2023-02-05T23:11:24.356Z,4.50
2023-02-05T23:13:52.660Z,4.10
2023-02-05T23:16:24.299Z,4.30
2023-02-05T23:18:53.281Z,4.10
2023-02-05T23:21:23.882Z,4.20
2023-02-05T23:23:52.828Z,4.10
2023-02-05T23:26:23.168Z,4.20
2023-02-05T23:28:52.283Z,4.20
2023-02-05T23:31:22.718Z,4.30
2023-02-05T23:33:51.562Z,4.30
2023-02-05T23:36:19.834Z,4.80
2023-02-05T23:38:48.429Z,4.20
2023-02-05T23:41:35.212Z,4.30
2023-02-05T23:44:05.706Z,4.40
2023-02-05T23:46:36.006Z,4.10
2023-02-05T23:49:04.592Z,4.30
2023-02-05T23:51:32.884Z,4.30
2023-02-05T23:54:00.933Z,3.50
2023-02-05T23:56:29.551Z,4.20
2023-02-05T23:58:57.805Z,4.30
